Time;durP1;ratioP1;P1;durP2;ratioP2;P2;SDS_P1;SDS_P2;PMS_P1;PMS_P2;Temp;Humidity;BMP_temperature;BMP_pressure;BME280_temperature;BME280_humidity;BME280_pressure;Samples;Min_cycle;Max_cycle;Signal;HPM_P1;HPM_P2
2022/01/16 00:04:33;;;;;;;;;65.75;48.75;;;;;3.20;64.51;102311.16;5083890;28;45361;-48
2022/01/16 00:07:04;;;;;;;;;75.75;52.00;;;;;3.20;64.35;102314.66;5082194;28;46312;-44
2022/01/16 00:09:32;;;;;;;;;64.50;49.25;;;;;3.22;64.29;102312.81;5084640;27;45404;-47
2022/01/16 00:12:00;;;;;;;;;61.25;47.50;;;;;3.22;63.85;102294.41;5082832;28;45460;-47
2022/01/16 00:14:26;;;;;;;;;71.25;50.50;;;;;3.21;63.76;102295.31;5079852;27;45302;-45
2022/01/16 00:16:51;;;;;;;;;62.50;45.75;;;;;3.23;64.00;102319.78;5078389;27;45328;-44
2022/01/16 00:19:17;;;;;;;;;60.50;48.75;;;;;3.25;64.28;102311.84;5078828;28;45333;-47
2022/01/16 00:21:43;;;;;;;;;66.00;48.25;;;;;3.24;64.04;102291.69;5078993;28;45755;-46
2022/01/16 00:24:09;;;;;;;;;56.25;46.75;;;;;3.27;63.97;102299.47;5079128;27;45360;-51
2022/01/16 00:26:36;;;;;;;;;71.50;47.50;;;;;3.25;63.80;102311.84;5078660;27;46309;-45
2022/01/16 00:29:03;;;;;;;;;70.75;50.50;;;;;3.26;64.27;102326.69;5078611;28;45340;-45
2022/01/16 00:31:29;;;;;;;;;60.50;45.00;;;;;3.27;63.52;102343.34;5078694;28;45305;-43
2022/01/16 00:33:54;;;;;;;;;51.25;43.25;;;;;3.20;63.97;102342.69;5078681;28;45293;-46
2022/01/16 00:36:21;;;;;;;;;54.50;44.00;;;;;3.24;63.61;102347.81;5078743;28;45864;-45
2022/01/16 00:38:50;;;;;;;;;58.25;44.00;;;;;3.22;63.92;102344.38;5078312;27;45501;-50
2022/01/16 00:41:18;;;;;;;;;50.50;32.00;;;;;3.19;63.63;102315.56;5078637;27;45889;-46
2022/01/16 00:43:44;;;;;;;;;55.25;40.50;;;;;3.18;63.37;102316.47;5078714;28;45612;-48
2022/01/16 00:46:09;;;;;;;;;48.50;40.75;;;;;3.15;63.55;102321.84;5078174;27;46071;-49
2022/01/16 00:48:35;;;;;;;;;50.50;40.50;;;;;3.13;63.88;102313.19;5078376;28;45339;-46
2022/01/16 00:51:00;;;;;;;;;60.75;46.75;;;;;3.10;63.11;102334.31;5078302;28;45311;-46
2022/01/16 00:53:25;;;;;;;;;52.50;41.00;;;;;3.08;64.08;102333.53;5078498;28;45408;-45
2022/01/16 00:55:51;;;;;;;;;59.75;46.25;;;;;3.05;63.44;102341.53;5078183;28;45299;-47
2022/01/16 00:58:16;;;;;;;;;53.75;46.75;;;;;3.03;63.55;102332.84;5077977;28;45181;-44
2022/01/16 01:00:42;;;;;;;;;61.00;45.25;;;;;3.01;63.97;102339.94;5078320;28;45744;-45
2022/01/16 01:03:07;;;;;;;;;58.00;44.00;;;;;2.96;63.34;102389.22;5077051;28;45225;-45
2022/01/16 01:05:34;;;;;;;;;72.00;44.75;;;;;2.89;63.25;102367.53;5077938;28;47019;-46
2022/01/16 01:08:00;;;;;;;;;48.50;35.50;;;;;2.89;63.78;102399.09;5078047;28;45271;-45
2022/01/16 01:10:32;;;;;;;;;44.25;36.50;;;;;2.88;63.34;102375.50;5077871;28;45418;-47
2022/01/16 01:13:08;;;;;;;;;51.00;42.00;;;;;2.83;63.32;102409.00;5078054;27;45287;-44
2022/01/16 01:15:43;;;;;;;;;36.75;31.50;;;;;2.77;63.48;102372.41;5077321;27;46290;-47
2022/01/16 01:18:09;;;;;;;;;59.00;38.50;;;;;2.78;64.01;102392.50;5110784;27;45415;-49
2022/01/16 01:20:36;;;;;;;;;48.00;41.00;;;;;2.71;63.74;102357.72;5078097;28;45333;-49
2022/01/16 01:23:02;;;;;;;;;56.25;39.00;;;;;2.79;63.50;102336.44;5078092;28;45308;-50
2022/01/16 01:25:27;;;;;;;;;48.50;35.25;;;;;2.77;63.73;102298.81;5076235;28;45463;-51
2022/01/16 01:27:53;;;;;;;;;61.75;42.00;;;;;2.68;63.66;102292.16;5077081;28;45462;-52
2022/01/16 01:30:23;;;;;;;;;59.00;43.75;;;;;2.72;64.51;102284.09;5077227;28;45839;-47
2022/01/16 01:32:49;;;;;;;;;53.00;39.00;;;;;2.72;63.51;102264.84;5077141;27;45408;-49
2022/01/16 01:35:16;;;;;;;;;52.50;44.00;;;;;2.69;63.70;102281.56;5077690;27;46091;-50
2022/01/16 01:37:42;;;;;;;;;60.50;47.75;;;;;2.72;63.96;102323.50;5077592;28;45320;-52
2022/01/16 01:40:11;;;;;;;;;47.00;39.25;;;;;2.67;63.49;102328.06;5076080;28;45442;-49
2022/01/16 01:51:13;;;;;;;;;50.50;35.25;;;;;2.72;63.68;102385.72;4995274;28;45397;-52
2022/01/16 01:53:41;;;;;;;;;56.00;43.75;;;;;2.72;63.69;102391.81;4995376;28;45285;-48
2022/01/16 01:56:10;;;;;;;;;57.25;42.00;;;;;2.73;63.70;102390.91;4995025;28;46233;-49
2022/01/16 01:58:35;;;;;;;;;64.00;38.25;;;;;2.72;63.92;102378.69;4996288;28;45332;-45
2022/01/16 02:01:01;;;;;;;;;60.50;41.75;;;;;2.70;63.82;102398.06;4996430;28;45369;-47
2022/01/16 02:06:29;;;;;;;;;52.00;33.75;;;;;2.70;63.69;102404.16;4995230;28;45510;-45
2022/01/16 02:08:57;;;;;;;;;56.75;36.50;;;;;2.68;64.00;102427.00;4995038;28;45333;-47
2022/01/16 02:11:26;;;;;;;;;66.75;46.50;;;;;2.71;64.23;102441.81;4995111;28;45455;-47
2022/01/16 02:14:01;;;;;;;;;47.25;39.50;;;;;2.71;64.23;102442.66;4995163;28;46002;-48
2022/01/16 02:30:53;;;;;;;;;65.75;49.50;;;;;2.87;64.90;102436.88;5077823;28;45300;-48
2022/01/16 02:35:40;;;;;;;;;69.50;46.25;;;;;2.89;64.55;102425.38;5078088;28;45393;-50
2022/01/16 02:38:09;;;;;;;;;62.75;47.00;;;;;2.88;64.45;102425.44;5077246;27;46017;-49
2022/01/16 02:40:36;;;;;;;;;71.00;51.00;;;;;2.88;64.27;102421.03;5079629;28;45409;-47
2022/01/16 02:43:02;;;;;;;;;60.50;44.50;;;;;2.90;64.93;102413.94;5081058;27;45419;-46
2022/01/16 02:45:30;;;;;;;;;64.00;48.50;;;;;2.88;64.81;102399.16;5081210;27;45578;-52
2022/01/16 02:48:05;;;;;;;;;66.75;49.00;;;;;2.83;64.94;102385.34;5080660;27;46968;-52
2022/01/16 02:50:32;;;;;;;;;68.00;42.75;;;;;2.88;64.72;102402.63;5080121;27;45475;-45
2022/01/16 02:52:58;;;;;;;;;66.50;46.25;;;;;2.85;65.01;102384.34;5080335;27;45304;-51
2022/01/16 02:55:24;;;;;;;;;72.75;52.00;;;;;2.82;65.42;102397.59;5080394;27;45534;-51
2022/01/16 02:57:52;;;;;;;;;63.00;46.75;;;;;2.84;65.07;102393.16;5080047;28;45411;-45
2022/01/16 03:00:18;;;;;;;;;53.25;45.00;;;;;2.82;65.13;102394.09;5080102;28;45378;-48
2022/01/16 03:02:44;;;;;;;;;67.25;46.25;;;;;2.86;65.08;102393.09;5112937;27;45335;-45
2022/01/16 03:05:10;;;;;;;;;61.50;43.00;;;;;2.85;64.75;102386.13;5080318;28;45389;-52
2022/01/16 03:07:36;;;;;;;;;59.50;47.50;;;;;2.73;65.28;102369.03;5079701;27;46161;-45
2022/01/16 03:12:55;;;;;;;;;63.00;46.25;;;;;2.73;64.81;102375.13;5017350;28;45571;-44
2022/01/16 03:15:21;;;;;;;;;57.75;43.50;;;;;2.69;65.43;102377.94;5017235;28;45413;-44
2022/01/16 03:23:10;;;;;;;;;68.25;48.50;;;;;2.34;65.65;102369.56;5017185;28;45357;-45
2022/01/16 03:25:35;;;;;;;;;53.75;37.50;;;;;2.28;66.08;102361.91;5017488;28;45317;-48
2022/01/16 03:28:01;;;;;;;;;68.75;46.50;;;;;2.19;66.77;102370.06;5017066;28;47079;-48
2022/01/16 03:30:26;;;;;;;;;54.75;42.25;;;;;2.17;66.16;102378.00;5016842;28;45488;-49
2022/01/16 03:32:52;;;;;;;;;54.00;44.00;;;;;2.03;66.77;102364.50;5017289;28;45761;-52
2022/01/16 03:35:17;;;;;;;;;55.25;42.50;;;;;2.05;66.82;102369.69;5017088;28;45500;-45
2022/01/16 03:37:42;;;;;;;;;56.00;39.75;;;;;2.03;67.06;102390.75;5016742;28;47340;-45
2022/01/16 03:40:11;;;;;;;;;59.50;44.25;;;;;2.04;67.45;102381.97;5016636;28;45450;-43
2022/01/16 03:42:37;;;;;;;;;67.25;48.25;;;;;2.02;66.77;102383.78;5016842;28;45303;-45
2022/01/16 03:45:05;;;;;;;;;61.00;46.25;;;;;1.93;67.13;102381.47;5017145;28;45432;-44
2022/01/16 03:47:30;;;;;;;;;56.00;44.00;;;;;2.11;66.95;102404.50;5016735;28;46402;-48
2022/01/16 03:49:56;;;;;;;;;68.25;45.50;;;;;2.15;67.23;102387.72;5047744;28;45418;-49
2022/01/16 03:52:21;;;;;;;;;71.00;50.25;;;;;2.19;67.23;102391.97;5077257;28;45791;-45
2022/01/16 03:54:46;;;;;;;;;56.00;48.25;;;;;2.09;66.68;102364.28;5079608;28;45368;-46
2022/01/16 03:57:12;;;;;;;;;70.00;47.25;;;;;2.15;66.42;102385.09;5079019;28;45327;-48
2022/01/16 03:59:37;;;;;;;;;63.75;47.50;;;;;2.08;67.06;102387.97;5079004;28;45359;-47
2022/01/16 04:02:04;;;;;;;;;68.25;51.75;;;;;2.03;67.82;102377.63;5079291;28;45206;-45
2022/01/16 04:04:30;;;;;;;;;61.25;47.00;;;;;2.03;67.75;102387.28;5079391;27;45340;-45
2022/01/16 04:06:55;;;;;;;;;70.25;47.25;;;;;1.98;67.45;102392.66;5078983;28;46001;-45
2022/01/16 04:09:21;;;;;;;;;64.75;51.00;;;;;2.01;67.31;102400.44;5111969;27;45437;-49
2022/01/16 04:11:52;;;;;;;;;60.25;45.50;;;;;1.95;67.72;102392.78;5079323;28;45309;-47
2022/01/16 04:14:26;;;;;;;;;62.50;45.25;;;;;1.94;68.18;102398.94;5079473;27;45211;-46
2022/01/16 04:16:52;;;;;;;;;69.25;51.25;;;;;1.86;68.11;102399.19;5079124;27;47240;-45
2022/01/16 04:19:18;;;;;;;;;67.00;48.25;;;;;1.84;68.18;102401.00;5079012;27;45496;-44
2022/01/16 04:21:43;;;;;;;;;68.50;45.25;;;;;1.91;68.47;102405.16;5079307;28;45465;-45
2022/01/16 04:24:09;;;;;;;;;54.25;46.00;;;;;1.90;68.69;102415.69;5079610;27;45405;-49
2022/01/16 04:26:34;;;;;;;;;66.75;48.25;;;;;1.90;68.51;102426.19;5078803;28;46852;-45
2022/01/16 04:29:00;;;;;;;;;68.00;49.00;;;;;1.94;68.36;102433.06;5078707;28;45313;-48
2022/01/16 04:31:25;;;;;;;;;56.25;47.50;;;;;2.02;68.57;102430.16;5078674;28;45326;-46
2022/01/16 04:33:50;;;;;;;;;63.75;41.25;;;;;2.02;68.38;102417.03;5078941;28;45324;-50
2022/01/16 04:36:16;;;;;;;;;73.00;50.00;;;;;2.16;68.27;102443.72;5078646;28;45319;-46
2022/01/16 04:38:46;;;;;;;;;77.25;48.00;;;;;2.19;67.95;102448.84;5076919;28;45304;-50
2022/01/16 04:43:57;;;;;;;;;69.75;49.00;;;;;2.27;68.12;102464.34;5078932;28;45239;-50
2022/01/16 04:46:27;;;;;;;;;63.50;44.50;;;;;2.31;67.87;102452.81;5078557;28;46165;-49
2022/01/16 04:48:54;;;;;;;;;58.25;46.75;;;;;2.32;67.90;102439.66;5078417;27;45346;-49
2022/01/16 04:51:21;;;;;;;;;68.75;50.50;;;;;2.34;68.06;102452.72;5078750;28;45383;-51
2022/01/16 04:53:47;;;;;;;;;70.00;46.50;;;;;2.34;67.80;102447.47;5078704;28;45277;-47
2022/01/16 04:56:13;;;;;;;;;62.50;48.50;;;;;2.38;67.74;102443.84;5078082;28;45441;-51
2022/01/16 04:58:40;;;;;;;;;69.00;48.75;;;;;2.37;68.16;102437.72;5078503;28;45342;-50
2022/01/16 05:01:06;;;;;;;;;65.00;48.25;;;;;2.39;68.04;102424.53;5078109;28;45357;-49
2022/01/16 05:03:32;;;;;;;;;67.75;47.00;;;;;2.42;67.76;102437.56;5078123;28;45336;-51
2022/01/16 05:05:58;;;;;;;;;66.25;46.00;;;;;2.43;67.93;102444.53;5077975;28;45294;-49
2022/01/16 05:08:24;;;;;;;;;69.25;44.00;;;;;2.43;67.38;102458.53;5077901;27;45249;-47
2022/01/16 05:10:55;;;;;;;;;56.75;39.75;;;;;2.43;67.70;102455.03;5078258;27;45235;-47
2022/01/16 05:18:33;;;;;;;;;58.75;41.75;;;;;2.46;67.61;102462.81;5077933;28;45371;-49
2022/01/16 05:20:59;;;;;;;;;86.25;58.50;;;;;2.45;67.65;102471.63;5078072;27;45323;-51
2022/01/16 05:23:25;;;;;;;;;61.25;45.25;;;;;2.46;67.48;102462.81;5078175;28;45378;-49
2022/01/16 05:25:51;;;;;;;;;60.25;47.50;;;;;2.44;68.02;102475.13;5077775;28;46068;-45
2022/01/16 05:28:16;;;;;;;;;70.75;51.75;;;;;2.44;68.16;102480.38;5077702;27;45263;-49
2022/01/16 05:30:41;;;;;;;;;66.75;47.00;;;;;2.42;68.24;102472.56;5077598;27;45223;-46
2022/01/16 05:33:08;;;;;;;;;59.25;45.25;;;;;2.48;68.04;102489.88;5078056;28;45490;-51
2022/01/16 05:35:33;;;;;;;;;64.75;44.75;;;;;2.48;68.51;102503.00;5077540;28;45348;-52
2022/01/16 05:37:59;;;;;;;;;60.50;43.00;;;;;2.47;68.19;102496.06;5077531;28;45355;-45
2022/01/16 05:40:24;;;;;;;;;64.25;46.50;;;;;2.47;68.29;102503.94;5077618;28;45361;-46
2022/01/16 05:42:49;;;;;;;;;72.00;49.00;;;;;2.42;68.72;102511.97;5077931;28;45300;-52
2022/01/16 05:45:15;;;;;;;;;70.00;48.25;;;;;2.42;68.60;102503.25;5077710;28;46183;-47
2022/01/16 05:47:40;;;;;;;;;56.50;40.25;;;;;2.44;68.63;102497.03;5077395;28;45368;-48
2022/01/16 05:50:06;;;;;;;;;57.75;41.00;;;;;2.45;68.60;102496.13;5077438;28;45440;-46
2022/01/16 05:52:31;;;;;;;;;49.50;36.75;;;;;2.44;69.16;102483.00;5077715;28;45292;-45
2022/01/16 05:54:56;;;;;;;;;51.25;37.50;;;;;2.45;69.08;102476.88;5077286;27;45396;-47
2022/01/16 05:57:22;;;;;;;;;55.25;42.00;;;;;2.41;68.68;102496.28;5076030;28;45351;-46
2022/01/16 05:59:47;;;;;;;;;46.00;32.50;;;;;2.39;69.39;102506.81;5077393;27;45279;-45
2022/01/16 06:02:13;;;;;;;;;58.00;42.75;;;;;2.41;69.37;102512.03;5077425;28;45488;-44
2022/01/16 06:04:39;;;;;;;;;50.00;35.50;;;;;2.42;69.30;102508.50;5077081;27;47040;-46
2022/01/16 06:07:05;;;;;;;;;49.50;42.50;;;;;2.43;69.12;102508.44;5077528;27;45246;-44
2022/01/16 06:09:30;;;;;;;;;65.25;42.00;;;;;2.43;69.47;102510.19;5077354;28;45302;-46
2022/01/16 06:11:57;;;;;;;;;53.50;40.25;;;;;2.40;69.85;102505.03;5077654;28;45334;-46
2022/01/16 06:14:23;;;;;;;;;59.25;44.00;;;;;2.31;69.72;102518.47;5077488;27;46233;-46
2022/01/16 06:16:50;;;;;;;;;46.75;38.00;;;;;2.28;70.35;102501.06;5081967;28;45296;-44
2022/01/16 06:19:15;;;;;;;;;53.75;36.00;;;;;2.24;70.00;102526.56;5081672;27;45335;-45
2022/01/16 06:21:41;;;;;;;;;57.50;43.00;;;;;2.27;70.69;102545.75;5082041;27;45395;-47
2022/01/16 06:24:06;;;;;;;;;69.75;45.50;;;;;2.31;70.42;102537.72;5080567;28;45511;-44
2022/01/16 06:26:31;;;;;;;;;53.50;37.25;;;;;2.36;70.37;102534.94;5079494;28;45272;-44
2022/01/16 06:28:58;;;;;;;;;56.50;41.75;;;;;2.33;70.28;102541.16;5080576;28;45361;-46
2022/01/16 06:31:23;;;;;;;;;53.00;37.25;;;;;2.37;70.29;102548.03;5080737;28;45321;-46
2022/01/16 06:33:50;;;;;;;;;45.50;32.00;;;;;2.35;69.88;102533.22;5080610;27;46480;-47
2022/01/16 06:36:16;;;;;;;;;44.75;30.00;;;;;2.31;70.40;102552.63;5080453;27;45321;-44
2022/01/16 06:38:41;;;;;;;;;61.25;44.00;;;;;2.18;70.90;102529.38;5080530;28;45204;-45
2022/01/16 06:41:07;;;;;;;;;45.25;32.50;;;;;2.32;70.61;102539.47;5080734;28;45476;-45
2022/01/16 06:43:33;;;;;;;;;54.75;33.25;;;;;2.34;70.67;102542.88;5080049;28;47008;-44
2022/01/16 06:45:59;;;;;;;;;37.50;27.50;;;;;2.30;70.25;102545.66;5080476;27;45362;-43
2022/01/16 06:48:24;;;;;;;;;47.25;31.25;;;;;2.24;70.63;102547.56;5080260;27;45441;-47
2022/01/16 06:50:49;;;;;;;;;36.25;29.00;;;;;2.23;70.95;102551.13;5080535;28;45353;-47
2022/01/16 06:53:15;;;;;;;;;37.00;22.50;;;;;2.22;70.46;102553.78;5080058;28;45818;-44
2022/01/16 06:55:40;;;;;;;;;27.00;24.75;;;;;2.13;70.25;102543.56;5080188;28;45324;-46
2022/01/16 06:58:06;;;;;;;;;31.00;27.75;;;;;2.12;71.23;102560.22;5080408;28;45425;-45
2022/01/16 07:00:31;;;;;;;;;32.50;24.75;;;;;2.14;71.63;102575.00;5080414;27;45475;-45
2022/01/16 07:02:57;;;;;;;;;34.75;28.50;;;;;2.14;71.70;102576.78;5079806;28;45462;-47
2022/01/16 07:05:22;;;;;;;;;37.00;25.75;;;;;2.17;71.76;102581.94;5080019;27;45347;-44
2022/01/16 07:07:47;;;;;;;;;43.50;31.00;;;;;2.19;71.74;102580.13;5080214;28;45297;-46
2022/01/16 07:10:13;;;;;;;;;33.50;27.00;;;;;2.12;71.37;102584.72;5080148;27;45536;-46
2022/01/16 07:12:38;;;;;;;;;31.25;23.00;;;;;2.08;71.21;102595.38;5080017;28;45471;-47
2022/01/16 07:15:04;;;;;;;;;34.00;26.50;;;;;2.12;71.82;102610.13;5079970;28;45231;-46
2022/01/16 07:17:30;;;;;;;;;35.75;26.50;;;;;2.07;72.12;102606.78;5079776;27;45427;-45
2022/01/16 07:19:55;;;;;;;;;41.75;20.75;;;;;2.07;71.55;102615.50;5080254;28;45218;-44
2022/01/16 07:22:21;;;;;;;;;25.00;19.00;;;;;2.05;70.92;102600.69;5079574;28;46196;-48
2022/01/16 07:24:48;;;;;;;;;30.25;24.50;;;;;2.04;71.74;102586.72;5112524;27;45260;-49
2022/01/16 07:27:13;;;;;;;;;36.50;26.00;;;;;1.95;71.92;102587.00;5111524;27;45255;-45
2022/01/16 07:29:39;;;;;;;;;35.50;28.00;;;;;2.02;72.92;102606.03;5112722;27;45465;-44
2022/01/16 07:32:06;;;;;;;;;46.00;30.00;;;;;1.97;72.16;102590.41;5079218;28;46314;-51
2022/01/16 07:34:32;;;;;;;;;37.25;27.25;;;;;1.90;72.18;102570.53;5079832;27;45346;-44
2022/01/16 07:36:57;;;;;;;;;31.00;24.50;;;;;1.93;73.50;102575.66;5078320;28;45331;-46
2022/01/16 07:39:23;;;;;;;;;43.25;27.00;;;;;1.99;73.36;102607.84;5079620;28;45446;-45
2022/01/16 07:41:48;;;;;;;;;40.75;24.75;;;;;2.02;73.54;102625.25;5079522;28;46135;-45
2022/01/16 07:44:14;;;;;;;;;36.00;29.75;;;;;2.06;73.01;102621.63;5078026;28;45256;-45
2022/01/16 07:46:39;;;;;;;;;36.00;28.50;;;;;1.93;72.80;102600.16;5079721;27;45342;-44
2022/01/16 07:49:04;;;;;;;;;40.50;25.50;;;;;2.07;72.68;102620.75;5079471;28;45242;-45
2022/01/16 07:51:31;;;;;;;;;44.50;28.75;;;;;2.06;73.77;102610.28;5079329;28;46138;-45
2022/01/16 07:53:57;;;;;;;;;35.50;32.50;;;;;2.06;73.81;102618.16;5079240;27;45773;-45
2022/01/16 07:56:23;;;;;;;;;39.00;26.25;;;;;2.07;73.79;102628.63;5079231;28;45572;-47
2022/01/16 07:58:49;;;;;;;;;37.25;29.25;;;;;2.01;73.77;102599.91;5079674;27;45369;-47
2022/01/16 08:01:14;;;;;;;;;37.00;27.50;;;;;2.13;74.71;102606.56;5079189;28;46038;-45
2022/01/16 08:03:40;;;;;;;;;33.25;23.75;;;;;2.15;73.62;102596.88;5079162;28;45479;-47
2022/01/16 08:06:05;;;;;;;;;34.00;27.75;;;;;2.10;73.58;102585.66;5079100;28;45357;-51
2022/01/16 08:08:31;;;;;;;;;34.25;26.25;;;;;2.17;74.01;102601.19;5112201;27;45323;-50
2022/01/16 08:10:56;;;;;;;;;30.50;24.50;;;;;2.19;73.60;102609.88;5078869;28;45962;-48
2022/01/16 08:13:21;;;;;;;;;33.00;22.50;;;;;2.23;74.02;102608.00;5078869;28;45354;-44
2022/01/16 08:15:47;;;;;;;;;40.25;23.50;;;;;2.23;73.84;102603.63;5079318;28;45499;-49
2022/01/16 08:18:12;;;;;;;;;34.50;26.75;;;;;2.29;74.14;102610.44;5079160;28;45516;-49
2022/01/16 08:20:38;;;;;;;;;54.50;29.75;;;;;2.27;73.73;102606.13;5078835;28;45377;-50
2022/01/16 08:23:03;;;;;;;;;36.50;26.50;;;;;2.36;74.23;102619.88;5078991;28;45376;-49
2022/01/16 08:25:29;;;;;;;;;41.25;29.25;;;;;2.42;74.19;102624.91;5078780;28;45791;-51
2022/01/16 08:27:54;;;;;;;;;35.75;26.75;;;;;2.57;73.68;102641.09;5078890;28;45322;-51
2022/01/16 08:30:20;;;;;;;;;35.25;26.00;;;;;2.57;72.83;102620.97;5078249;28;46118;-51
2022/01/16 08:32:45;;;;;;;;;31.00;23.00;;;;;2.61;73.36;102625.22;5078428;28;45628;-50
2022/01/16 08:35:12;;;;;;;;;41.50;28.00;;;;;2.66;73.63;102617.19;5078619;28;45881;-50
2022/01/16 08:37:38;;;;;;;;;40.00;28.00;;;;;2.68;73.18;102623.22;5078167;27;45252;-50
2022/01/16 08:40:05;;;;;;;;;33.00;22.00;;;;;2.73;73.12;102613.41;5078037;28;45374;-53
2022/01/16 08:42:31;;;;;;;;;58.75;35.75;;;;;2.77;72.62;102617.66;5078286;27;45299;-51
2022/01/16 08:44:56;;;;;;;;;40.50;28.00;;;;;2.77;72.36;102616.81;5078308;28;45409;-49
2022/01/16 08:47:22;;;;;;;;;42.00;31.00;;;;;2.77;72.64;102619.44;5078493;27;45300;-47
2022/01/16 08:49:48;;;;;;;;;24.00;21.50;;;;;2.74;72.35;102623.03;5077897;27;45408;-50
2022/01/16 08:52:13;;;;;;;;;35.00;26.25;;;;;2.78;73.27;102626.41;5077957;27;45390;-47
2022/01/16 08:54:39;;;;;;;;;34.25;25.00;;;;;2.78;73.03;102631.66;5078301;28;45475;-50
2022/01/16 08:57:05;;;;;;;;;34.25;24.25;;;;;2.75;73.33;102632.63;5077062;28;45406;-50
2022/01/16 08:59:31;;;;;;;;;38.25;22.25;;;;;2.69;72.95;102620.53;5077896;28;46400;-51
2022/01/16 09:01:56;;;;;;;;;34.50;28.75;;;;;2.85;72.98;102651.59;5078000;28;45270;-51
2022/01/16 09:04:22;;;;;;;;;35.25;28.50;;;;;2.89;73.14;102640.91;5077984;28;45245;-48
2022/01/16 09:06:47;;;;;;;;;33.50;26.50;;;;;2.93;73.19;102645.16;5078233;28;45365;-51
2022/01/16 09:09:13;;;;;;;;;40.00;29.25;;;;;2.95;72.63;102648.63;5076457;28;47039;-50
2022/01/16 09:11:39;;;;;;;;;42.75;30.25;;;;;2.94;72.94;102649.50;5077925;28;45354;-50
2022/01/16 09:14:04;;;;;;;;;41.75;27.50;;;;;2.95;73.01;102651.25;5078026;27;45165;-50
2022/01/16 09:16:30;;;;;;;;;19.75;11.75;;;;;2.99;72.70;102667.75;5078124;27;45470;-49
2022/01/16 09:18:56;;;;;;;;;42.00;31.75;;;;;3.01;73.06;102673.84;5077669;27;47232;-50
2022/01/16 09:21:21;;;;;;;;;41.00;33.25;;;;;2.99;73.42;102675.63;5077823;27;45318;-49
2022/01/16 09:23:48;;;;;;;;;45.25;33.50;;;;;3.04;72.28;102671.13;5077914;28;46033;-48
2022/01/16 09:26:15;;;;;;;;;37.75;30.25;;;;;3.17;73.19;102677.69;5077966;28;45404;-48
2022/01/16 09:28:41;;;;;;;;;43.25;34.25;;;;;3.24;73.10;102668.69;5077641;28;46388;-50
2022/01/16 09:31:07;;;;;;;;;46.25;33.00;;;;;3.31;72.05;102668.44;5077636;28;45714;-50
2022/01/16 09:33:32;;;;;;;;;37.75;29.50;;;;;3.34;71.97;102676.25;5077569;27;45221;-50
2022/01/16 09:35:58;;;;;;;;;32.50;15.75;;;;;3.40;71.99;102679.50;5077913;27;45448;-50
2022/01/16 09:38:23;;;;;;;;;38.75;27.00;;;;;3.46;71.74;102678.47;5077250;28;45978;-48
2022/01/16 09:40:49;;;;;;;;;28.25;22.50;;;;;3.50;71.32;102680.06;5078176;28;45242;-48
2022/01/16 09:43:16;;;;;;;;;37.75;26.50;;;;;3.54;70.83;102678.16;5110794;27;45347;-47
2022/01/16 09:45:41;;;;;;;;;43.25;32.00;;;;;3.54;71.12;102681.69;5079176;27;45305;-49
2022/01/16 09:48:07;;;;;;;;;38.75;33.50;;;;;3.73;70.81;102682.72;5079166;27;45882;-51
2022/01/16 09:50:32;;;;;;;;;43.25;34.00;;;;;4.15;69.50;102674.16;5078163;28;45445;-51
2022/01/16 09:52:59;;;;;;;;;36.75;32.00;;;;;4.41;68.47;102693.38;5079405;28;45436;-51
2022/01/16 09:55:25;;;;;;;;;36.75;28.00;;;;;4.41;68.38;102685.47;5077906;27;45286;-51
2022/01/16 09:57:53;;;;;;;;;28.00;24.50;;;;;4.31;68.46;102686.75;5077229;28;46120;-50
2022/01/16 10:00:21;;;;;;;;;41.50;30.00;;;;;4.18;68.89;102678.47;5077298;28;45403;-52
2022/01/16 10:02:47;;;;;;;;;35.25;22.75;;;;;4.24;68.57;102681.72;5077086;28;45465;-53
2022/01/16 10:05:37;;;;;;;;;33.50;23.75;;;;;4.40;67.53;102689.03;5077077;27;45454;-51
2022/01/16 10:08:05;;;;;;;;;39.75;25.50;;;;;4.47;68.34;102693.16;5077318;28;46230;-48
2022/01/16 10:10:40;;;;;;;;;35.75;22.75;;;;;4.82;66.59;102678.56;5077493;28;45385;-53
2022/01/16 10:13:33;;;;;;;;;45.25;27.75;;;;;5.34;66.19;102673.75;5077389;27;45301;-52
2022/01/16 10:15:59;;;;;;;;;26.00;18.75;;;;;5.67;64.67;102668.81;5077483;27;45213;-49
2022/01/16 10:18:33;;;;;;;;;31.75;23.50;;;;;6.17;63.11;102678.91;5076967;28;46173;-52
2022/01/16 10:20:59;;;;;;;;;28.50;16.25;;;;;6.19;63.12;102687.63;5076823;27;45425;-48
2022/01/16 10:23:25;;;;;;;;;16.75;15.25;;;;;5.87;62.60;102683.78;5076722;28;45273;-51
2022/01/16 10:25:51;;;;;;;;;28.00;20.50;;;;;5.73;63.84;102675.56;5076925;27;45521;-51
2022/01/16 10:28:20;;;;;;;;;28.00;22.75;;;;;5.67;62.96;102689.91;5076512;28;46184;-50
2022/01/16 10:30:51;;;;;;;;;40.25;24.75;;;;;5.81;62.85;102683.16;5076630;27;45243;-50
2022/01/16 10:33:20;;;;;;;;;26.50;21.50;;;;;5.56;63.31;102678.09;5076530;28;45368;-52
2022/01/16 10:35:47;;;;;;;;;37.75;24.25;;;;;5.52;63.54;102677.41;5076984;27;45292;-51
2022/01/16 10:38:30;;;;;;;;;29.75;24.75;;;;;7.16;61.84;102680.31;5076248;27;46165;-48
2022/01/16 10:40:58;;;;;;;;;37.00;25.25;;;;;7.86;58.48;102678.47;5076516;27;45424;-49
2022/01/16 10:43:44;;;;;;;;;28.50;20.75;;;;;8.40;56.37;102679.09;5076701;28;45436;-53
2022/01/16 10:46:12;;;;;;;;;27.25;19.25;;;;;9.15;56.50;102680.09;5076850;28;45327;-51
2022/01/16 10:48:38;;;;;;;;;33.75;24.25;;;;;9.36;54.44;102670.03;5076660;28;46109;-52
2022/01/16 10:51:03;;;;;;;;;31.75;23.50;;;;;9.70;53.82;102671.50;5076485;27;45314;-51
2022/01/16 10:53:31;;;;;;;;;28.25;22.00;;;;;9.64;53.62;102669.19;5076710;28;45416;-51
2022/01/16 10:56:03;;;;;;;;;27.75;21.25;;;;;9.37;54.24;102674.38;5076806;27;45234;-52
2022/01/16 10:58:38;;;;;;;;;27.50;22.50;;;;;9.56;54.05;102669.66;5076146;28;47836;-52
2022/01/16 11:01:16;;;;;;;;;27.50;26.25;;;;;10.88;51.74;102658.69;5077754;28;45455;-48
2022/01/16 11:03:45;;;;;;;;;17.75;17.00;;;;;12.51;48.59;102664.19;5080412;27;45506;-49
2022/01/16 11:06:11;;;;;;;;;31.00;25.00;;;;;12.49;46.24;102651.81;5079915;27;45686;-49
2022/01/16 11:08:37;;;;;;;;;24.00;18.75;;;;;12.04;47.16;102652.47;5079537;28;47237;-45
2022/01/16 11:11:03;;;;;;;;;20.75;16.00;;;;;11.82;48.67;102658.44;5079684;28;45477;-48
2022/01/16 11:13:34;;;;;;;;;26.25;22.25;;;;;10.84;49.97;102655.34;5079728;27;45468;-46
2022/01/16 11:16:03;;;;;;;;;21.75;20.75;;;;;10.18;51.29;102654.28;5080104;28;45338;-49
2022/01/16 11:18:29;;;;;;;;;27.75;21.25;;;;;9.27;52.69;102660.81;5079240;27;46555;-49
2022/01/16 11:26:12;;;;;;;;;26.75;21.50;;;;;7.36;57.46;102669.56;5079967;28;45399;-48
2022/01/16 11:28:38;;;;;;;;;31.50;22.50;;;;;6.88;58.95;102673.75;5078840;28;45281;-54
2022/01/16 11:31:09;;;;;;;;;27.50;24.75;;;;;6.53;60.60;102677.25;5079449;27;45456;-57
2022/01/16 11:33:36;;;;;;;;;10.25;8.00;;;;;6.17;61.04;102678.03;5079813;28;45395;-57
2022/01/16 11:36:07;;;;;;;;;30.75;24.75;;;;;5.90;62.13;102678.34;5079678;27;45496;-51
2022/01/16 11:38:40;;;;;;;;;29.25;22.00;;;;;5.74;62.74;102680.81;5079384;28;45984;-54
2022/01/16 11:41:37;;;;;;;;;32.50;25.00;;;;;5.63;63.39;102685.69;5079658;28;45221;-54
2022/01/16 11:44:05;;;;;;;;;26.50;24.75;;;;;5.60;63.80;102672.63;5079542;27;45269;-54
2022/01/16 11:46:40;;;;;;;;;34.50;21.75;;;;;5.61;63.64;102681.44;5079700;27;45303;-54
2022/01/16 11:49:07;;;;;;;;;24.50;19.75;;;;;5.50;63.93;102672.19;5079139;28;45307;-50
2022/01/16 11:51:36;;;;;;;;;21.50;20.50;;;;;5.37;64.71;102681.56;5079412;27;45256;-59
2022/01/16 11:54:01;;;;;;;;;32.00;28.00;;;;;5.24;65.69;102683.00;5079652;27;45217;-54
2022/01/16 11:56:41;;;;;;;;;27.00;22.25;;;;;5.30;65.82;102673.97;5079799;27;45211;-57
2022/01/16 11:59:13;;;;;;;;;23.75;23.00;;;;;5.32;65.54;102683.53;5079256;28;45403;-58
2022/01/16 12:01:43;;;;;;;;;23.50;21.75;;;;;5.43;65.78;102678.63;5078149;28;45350;-53
2022/01/16 12:04:28;;;;;;;;;34.00;24.25;;;;;5.55;65.50;102684.31;5079230;28;45504;-54
2022/01/16 12:07:12;;;;;;;;;28.25;26.50;;;;;5.50;64.94;102680.09;5079515;27;45526;-52
2022/01/16 12:09:51;;;;;;;;;30.75;21.50;;;;;5.44;65.21;102674.25;5079146;28;46049;-54